Akron, CO

10:31 AM MDT on October 23, 2014 (GMT -0600)
Akron-Washington County | Change Station
CLOSE
Current Station
Airport
Location: Akron,
Elevation: 4662 ft
Nearby Weather Stations

Elev 4662 ft 40.17 °N, 103.21 °W | Updated 38 minutes ago

Clear
Clear
55 °F
Feels Like 55 °F
N
12
Wind Variable Wind from West

Today
High -- | Low -- °F
--% Chance of Precip.
Yesterday
High -- | Low -- °F
Precip. -- in
7:11 AM 6:01 PM
Waning Crescent, 0% visible
Pressure 30.10 in
Visibility 10.0 miles
Clouds Clear
Dew Point 41 °F
Humidity 59%
Rainfall 0.00 in
Snow Depth Not available.
UV 2 out of 12
Pollen 2.50 out of 12
Air Quality Not available.
Flu Activity Sporadic
METAR KAKO 231553Z AUTO 26010KT 10SM CLR 13/05 A3016 RMK AO2 SLP192 T01280050

More Conditions Fewer Conditions

Pressure 30.10 in
Visibility 10.0 miles
Clouds Clear
Dew Point 41 °F
Humidity 59%
Rainfall 0.00 in
Snow Depth Not available.
UV 2 out of 12
Pollen 2.50 out of 12
Air Quality Not available.
Flu Activity Sporadic
METAR KAKO 231553Z AUTO 26010KT 10SM CLR 13/05 A3016 RMK AO2 SLP192 T01280050

More Conditions Fewer Conditions

10-Day Weather Forecast

Almanac

Astronomy

Oct. 23, 2014 Rise Set
Actual Time 7:11 AM MDT 6:01 PM MDT
Civil Twilight 6:44 AM MDT 6:29 PM MDT
Nautical Twilight 6:12 AM MDT 7:00 PM MDT
Astronomical Twilight 5:41 AM MDT 7:32 PM MDT
Moon 6:53 AM MDT 6:04 PM MDT
Length of Visible Light 11h 44m
Length of Day
10h 49m
Tomorrow will be 2m 27s shorter.
Waning Crescent, 0% of the Moon is Illuminated
Today
Waning Crescent
Oct 23
New
Oct 30
First Quarter
Nov 6
Full
Nov 14
Last Quarter

Today's Extremes

State Highs State Lows

Community

WunderPhotos

Upload Photos

1,764,306 photos uploaded!

WunderBlogs® & News

Nearby

Snow Depth

Station Depth Elevation
Niwot 0 in 9910 ft
University Camp 1 in 10300 ft
Copeland Lake 1 in 8600 ft
Wild Basin 0 in 9560 ft
Glen Cove 1 in 11460 ft

Earthquake Activity

City Distance Mag. Time & Date
No recent earthquake activity has been reported nearby.
Minimum magnitude displayed is 2.5.

Coastal Water Temperatures

Place Temperature
No Stations Reporting

Nearby Weather Stations